Time;durP1;ratioP1;P1;durP2;ratioP2;P2;SDS_P1;SDS_P2;PMS_P1;PMS_P2;Temp;Humidity;BMP_temperature;BMP_pressure;BME280_temperature;BME280_humidity;BME280_pressure;Samples;Min_cycle;Max_cycle;Signal;HPM_P1;HPM_P2
2024/01/11 00:00:51;;;;;;;32.80;16.15;;;-3.90;99.90;;;;;;4915993;29;20055;-76
2024/01/11 00:03:16;;;;;;;30.60;15.07;;;-3.90;99.90;;;;;;4915002;29;20059;-77
2024/01/11 00:05:42;;;;;;;36.50;14.88;;;-3.90;99.90;;;;;;4897867;29;20059;-80
2024/01/11 00:08:10;;;;;;;28.08;13.82;;;-3.90;99.90;;;;;;4897684;29;20115;-77
2024/01/11 00:10:36;;;;;;;31.05;12.98;;;-3.90;99.90;;;;;;4914287;29;20501;-78
2024/01/11 00:13:02;;;;;;;32.33;14.52;;;-3.90;99.90;;;;;;4914692;29;20143;-76
2024/01/11 00:15:27;;;;;;;28.50;15.15;;;-3.90;99.90;;;;;;4898951;29;20096;-72
2024/01/11 00:17:53;;;;;;;30.50;13.95;;;-3.90;99.90;;;;;;4898883;29;20087;-78
2024/01/11 00:20:19;;;;;;;33.60;16.55;;;-3.90;99.90;;;;;;4898188;29;20104;-80
2024/01/11 00:22:44;;;;;;;32.85;15.02;;;-4.00;99.90;;;;;;4915047;29;20063;-79
2024/01/11 00:25:10;;;;;;;39.63;15.80;;;-4.00;99.90;;;;;;4914656;29;20388;-79
2024/01/11 00:27:36;;;;;;;35.63;15.82;;;-4.00;99.90;;;;;;4914662;29;20119;-77
2024/01/11 00:30:02;;;;;;;33.75;14.73;;;-4.00;99.90;;;;;;4915899;29;20147;-80
2024/01/11 00:32:27;;;;;;;30.27;15.13;;;-4.00;99.90;;;;;;4897624;29;20411;-81
2024/01/11 00:34:53;;;;;;;36.03;15.43;;;-4.00;99.90;;;;;;4915584;29;20067;-77
2024/01/11 00:37:19;;;;;;;30.85;14.52;;;-4.10;99.90;;;;;;4914607;29;20040;-74
2024/01/11 00:39:45;;;;;;;34.55;16.92;;;-4.10;99.90;;;;;;4914583;29;20084;-77
2024/01/11 00:42:10;;;;;;;30.30;14.70;;;-4.10;99.90;;;;;;4914631;29;20441;-79
2024/01/11 00:44:36;;;;;;;33.10;16.38;;;-4.10;99.90;;;;;;4897437;29;20733;-75
2024/01/11 00:47:02;;;;;;;31.33;15.05;;;-4.20;99.90;;;;;;4916448;29;20066;-80
2024/01/11 00:49:27;;;;;;;33.90;16.13;;;-4.20;99.90;;;;;;4886653;29;20052;-78
2024/01/11 00:51:53;;;;;;;32.70;15.85;;;-4.20;99.90;;;;;;4919349;29;20139;-81
2024/01/11 00:54:19;;;;;;;41.55;17.38;;;-4.20;99.90;;;;;;4917895;29;20052;-80
2024/01/11 00:56:44;;;;;;;32.95;15.77;;;-4.30;99.90;;;;;;4917972;29;20059;-78
2024/01/11 00:59:10;;;;;;;35.50;15.85;;;-4.20;99.90;;;;;;4918031;29;20103;-80
2024/01/11 01:01:36;;;;;;;31.42;15.10;;;-4.30;99.90;;;;;;4917508;29;20067;-80
2024/01/11 01:04:02;;;;;;;39.17;17.02;;;-4.30;99.90;;;;;;4918036;29;20056;-77
2024/01/11 01:06:27;;;;;;;35.70;16.65;;;-4.30;99.90;;;;;;4901933;29;20407;-78
2024/01/11 01:08:55;;;;;;;35.97;16.70;;;-4.40;99.90;;;;;;4901260;29;20056;-71
2024/01/11 01:11:20;;;;;;;34.05;16.50;;;-4.40;99.90;;;;;;4917302;29;20115;-75
2024/01/11 01:13:46;;;;;;;36.10;17.55;;;-4.40;99.90;;;;;;4917542;29;20060;-80
2024/01/11 01:16:12;;;;;;;33.90;15.55;;;-4.40;99.90;;;;;;4900508;29;20121;-79
2024/01/11 01:18:38;;;;;;;36.03;16.20;;;-4.40;99.90;;;;;;4917596;29;20051;-80
2024/01/11 01:21:06;;;;;;;31.48;15.52;;;-4.40;99.90;;;;;;4901500;29;20396;-80
2024/01/11 01:23:32;;;;;;;33.88;16.33;;;-4.40;99.90;;;;;;4902282;29;20142;-79
2024/01/11 01:25:58;;;;;;;34.35;15.98;;;-4.50;99.90;;;;;;4917520;29;20126;-78
2024/01/11 01:28:23;;;;;;;34.45;15.68;;;-4.50;99.90;;;;;;4917447;29;20152;-79
2024/01/11 01:30:49;;;;;;;35.38;15.68;;;-4.50;99.90;;;;;;4917395;29;20066;-81
2024/01/11 01:33:15;;;;;;;37.17;17.30;;;-4.50;99.90;;;;;;4900407;29;20106;-81
2024/01/11 01:35:40;;;;;;;34.90;16.42;;;-4.50;99.90;;;;;;4900495;29;20564;-78
2024/01/11 01:38:06;;;;;;;33.95;14.95;;;-4.50;99.90;;;;;;4900533;29;20064;-79
2024/01/11 01:40:32;;;;;;;37.17;14.75;;;-4.50;99.90;;;;;;4887034;29;20417;-80
2024/01/11 01:42:59;;;;;;;37.72;16.70;;;-4.50;99.90;;;;;;4917279;29;20400;-80
2024/01/11 01:45:25;;;;;;;29.88;14.02;;;-4.60;99.90;;;;;;4917135;29;20092;-80
2024/01/11 01:47:51;;;;;;;30.35;13.65;;;-4.60;99.90;;;;;;4917065;29;20098;-80
2024/01/11 01:50:18;;;;;;;37.42;16.27;;;-4.60;99.90;;;;;;4916748;29;20149;-81
2024/01/11 01:52:44;;;;;;;38.65;16.60;;;-4.60;99.90;;;;;;4916835;29;20095;-80
2024/01/11 01:55:12;;;;;;;35.17;15.65;;;-4.60;99.90;;;;;;4901071;29;20378;-78
2024/01/11 01:57:40;;;;;;;38.42;15.98;;;-4.60;99.90;;;;;;4900462;29;20571;-79
2024/01/11 02:00:07;;;;;;;36.30;18.45;;;-4.50;99.90;;;;;;4916806;29;20076;-81
2024/01/11 02:02:34;;;;;;;28.00;13.93;;;-4.50;99.90;;;;;;4916644;29;20496;-80
2024/01/11 02:05:00;;;;;;;34.25;16.25;;;-4.50;99.90;;;;;;4899660;29;20048;-80
2024/01/11 02:07:26;;;;;;;32.13;15.93;;;-4.40;99.90;;;;;;4916808;29;20056;-81
2024/01/11 02:09:52;;;;;;;35.50;17.27;;;-4.50;99.90;;;;;;4899655;29;20063;-76
2024/01/11 02:12:18;;;;;;;32.70;15.30;;;-4.40;99.90;;;;;;4917113;29;20143;-80
2024/01/11 02:14:44;;;;;;;36.45;18.00;;;-4.40;99.90;;;;;;4918506;29;20052;-79
2024/01/11 02:17:10;;;;;;;39.88;17.67;;;-4.40;99.90;;;;;;4916567;29;20525;-79
2024/01/11 02:19:36;;;;;;;37.45;17.55;;;-4.40;99.90;;;;;;4899641;29;20130;-81
2024/01/11 02:22:10;;;;;;;38.30;19.02;;;-4.50;99.90;;;;;;4916585;29;20044;-77
2024/01/11 02:24:36;;;;;;;33.35;17.33;;;-4.50;99.90;;;;;;4916651;29;20051;-80
2024/01/11 02:27:03;;;;;;;39.58;17.33;;;-4.50;99.90;;;;;;4916244;29;20390;-77
2024/01/11 02:29:30;;;;;;;35.92;17.40;;;-4.50;99.90;;;;;;4918538;29;20048;-79
2024/01/11 02:31:56;;;;;;;40.13;17.02;;;-4.50;99.90;;;;;;4916650;29;20500;-76
2024/01/11 02:34:26;;;;;;;38.55;16.30;;;-4.50;99.90;;;;;;4883888;29;20174;-80
2024/01/11 02:36:53;;;;;;;39.50;18.95;;;-4.40;99.90;;;;;;4899327;29;20055;-78
2024/01/11 02:39:19;;;;;;;38.83;17.45;;;-4.40;99.90;;;;;;4899835;29;20086;-72
2024/01/11 02:41:46;;;;;;;40.47;18.88;;;-4.30;99.90;;;;;;4916721;29;20052;-80
2024/01/11 02:44:11;;;;;;;49.03;19.38;;;-4.30;99.90;;;;;;4916428;29;20147;-77
2024/01/11 02:46:37;;;;;;;39.30;19.77;;;-4.20;99.90;;;;;;4916681;29;20139;-73
2024/01/11 02:49:03;;;;;;;41.92;19.00;;;-4.10;99.90;;;;;;4917523;29;20292;-79
2024/01/11 02:51:29;;;;;;;42.15;19.17;;;-4.20;99.90;;;;;;4899449;29;20052;-80
2024/01/11 02:53:54;;;;;;;47.00;19.55;;;-4.10;99.90;;;;;;4899011;29;20103;-77
2024/01/11 02:56:20;;;;;;;41.83;18.75;;;-4.10;99.90;;;;;;4899020;29;20056;-79
2024/01/11 02:58:46;;;;;;;39.00;19.05;;;-4.10;99.90;;;;;;4898868;29;20090;-80
2024/01/11 03:01:11;;;;;;;47.80;21.17;;;-4.00;99.90;;;;;;4916254;29;20052;-79
2024/01/11 03:03:37;;;;;;;45.03;19.33;;;-4.00;99.90;;;;;;4898769;29;20135;-80
2024/01/11 03:06:04;;;;;;;40.47;18.77;;;-4.00;99.90;;;;;;4900174;29;20055;-79
2024/01/11 03:08:30;;;;;;;45.40;21.48;;;-3.90;99.90;;;;;;4917901;29;20044;-79
2024/01/11 03:10:55;;;;;;;47.30;20.92;;;-3.90;99.90;;;;;;4914683;29;20051;-76
2024/01/11 03:13:21;;;;;;;44.83;19.80;;;-3.80;99.90;;;;;;4915630;29;20055;-74
2024/01/11 03:15:46;;;;;;;47.15;22.20;;;-3.80;99.90;;;;;;4915852;29;20100;-76
2024/01/11 03:18:12;;;;;;;45.67;19.30;;;-3.70;99.90;;;;;;4915585;29;20416;-76
2024/01/11 03:20:38;;;;;;;41.65;19.58;;;-3.70;99.90;;;;;;4898466;29;20044;-74
2024/01/11 03:23:04;;;;;;;49.03;21.17;;;-3.60;99.90;;;;;;4916282;29;20099;-80
2024/01/11 03:25:30;;;;;;;46.92;21.60;;;-3.50;99.90;;;;;;4916089;29;20060;-79
2024/01/11 03:27:55;;;;;;;48.42;21.58;;;-3.50;99.90;;;;;;4918096;29;20062;-73
2024/01/11 03:30:21;;;;;;;46.00;21.25;;;-3.40;99.90;;;;;;4915523;29;20055;-76
2024/01/11 03:32:47;;;;;;;48.45;22.25;;;-3.30;99.90;;;;;;4915351;29;20052;-71
2024/01/11 03:35:13;;;;;;;51.38;21.23;;;-3.30;99.90;;;;;;4898629;29;20119;-71
2024/01/11 03:37:38;;;;;;;52.67;22.55;;;-3.20;99.90;;;;;;4915501;29;20055;-75
2024/01/11 03:40:05;;;;;;;47.08;22.33;;;-3.20;99.90;;;;;;4915764;29;20047;-78
2024/01/11 03:42:31;;;;;;;45.97;21.20;;;-3.10;99.90;;;;;;4916142;29;20131;-77
2024/01/11 03:44:56;;;;;;;48.72;22.05;;;-3.00;99.90;;;;;;4916084;29;20191;-78
2024/01/11 03:47:22;;;;;;;43.67;20.60;;;-3.00;99.90;;;;;;4898019;29;20413;-79
2024/01/11 03:49:48;;;;;;;51.25;22.83;;;-2.90;99.90;;;;;;4916269;29;20167;-76
2024/01/11 03:52:13;;;;;;;49.97;20.63;;;-2.90;99.90;;;;;;4914815;29;20114;-76
2024/01/11 03:54:39;;;;;;;50.00;21.15;;;-2.80;99.90;;;;;;4915150;29;20156;-77
2024/01/11 03:57:06;;;;;;;43.25;20.83;;;-2.80;99.90;;;;;;4898098;29;20055;-80
2024/01/11 03:59:32;;;;;;;43.85;19.17;;;-2.70;99.90;;;;;;4915211;29;20062;-81
2024/01/11 04:01:58;;;;;;;45.78;20.83;;;-2.70;99.90;;;;;;4914961;29;20056;-72
2024/01/11 04:04:23;;;;;;;44.67;21.30;;;-2.70;99.90;;;;;;4899357;29;20135;-74
2024/01/11 04:06:50;;;;;;;44.25;20.58;;;-2.70;99.90;;;;;;4915039;29;20052;-74
2024/01/11 04:09:16;;;;;;;43.92;19.08;;;-2.60;99.90;;;;;;4882118;29;20158;-79
2024/01/11 04:11:42;;;;;;;43.70;20.27;;;-2.60;99.90;;;;;;4899282;29;20067;-73
2024/01/11 04:14:07;;;;;;;41.38;18.98;;;-2.60;99.90;;;;;;4914900;29;20048;-73
2024/01/11 04:16:33;;;;;;;43.22;18.90;;;-2.50;99.90;;;;;;4897801;29;20489;-78
2024/01/11 04:18:59;;;;;;;44.03;20.55;;;-2.50;99.90;;;;;;4914738;29;20386;-78
2024/01/11 04:21:29;;;;;;;39.83;18.88;;;-2.50;99.90;;;;;;4916272;29;20044;-80
2024/01/11 04:23:56;;;;;;;43.50;19.40;;;-2.40;99.90;;;;;;4918792;29;20048;-79
2024/01/11 04:26:22;;;;;;;40.15;19.88;;;-2.40;99.90;;;;;;4902531;29;20132;-77
2024/01/11 04:28:48;;;;;;;41.88;19.42;;;-2.40;99.90;;;;;;4919607;29;20052;-76
2024/01/11 04:31:16;;;;;;;43.15;19.67;;;-2.30;99.90;;;;;;4918668;29;20139;-73
2024/01/11 04:33:43;;;;;;;43.90;21.58;;;-2.30;99.90;;;;;;4918820;29;20413;-81
2024/01/11 04:36:09;;;;;;;43.08;20.45;;;-2.30;99.90;;;;;;4902011;29;20521;-77
2024/01/11 04:38:35;;;;;;;45.03;20.73;;;-2.20;99.90;;;;;;4901216;29;20077;-75
2024/01/11 04:41:01;;;;;;;40.47;19.08;;;-2.20;99.90;;;;;;4918786;29;20456;-78
2024/01/11 04:43:26;;;;;;;43.60;20.45;;;-2.20;99.90;;;;;;4921239;29;20104;-75
2024/01/11 04:45:52;;;;;;;46.58;19.75;;;-2.10;99.90;;;;;;4902196;29;20048;-80
2024/01/11 04:48:18;;;;;;;42.45;19.98;;;-2.10;99.90;;;;;;4901304;29;20068;-76
2024/01/11 04:50:45;;;;;;;40.85;20.00;;;-2.10;99.90;;;;;;4918977;29;20048;-81
2024/01/11 04:53:11;;;;;;;37.22;17.67;;;-2.00;99.90;;;;;;4920810;29;20066;-73
2024/01/11 04:55:37;;;;;;;46.97;21.05;;;-2.00;99.90;;;;;;4918286;29;20493;-79
2024/01/11 04:58:02;;;;;;;46.28;21.83;;;-2.00;99.90;;;;;;4918597;29;20192;-79
2024/01/11 05:00:28;;;;;;;43.17;20.55;;;-2.00;99.90;;;;;;4918368;29;20040;-77
2024/01/11 05:02:55;;;;;;;46.10;22.17;;;-1.90;99.90;;;;;;4918235;29;20441;-77
2024/01/11 05:05:20;;;;;;;47.28;21.42;;;-1.90;99.90;;;;;;4900885;29;20488;-80
2024/01/11 05:07:46;;;;;;;49.33;23.63;;;-1.90;99.90;;;;;;4918196;29;20066;-79
2024/01/11 05:10:12;;;;;;;48.97;20.70;;;-1.80;99.90;;;;;;4917598;29;20100;-79
2024/01/11 05:12:38;;;;;;;49.83;23.50;;;-1.80;99.90;;;;;;4901971;29;20060;-80
2024/01/11 05:15:06;;;;;;;43.38;20.10;;;-1.80;99.90;;;;;;4885679;29;20044;-81
2024/01/11 05:17:31;;;;;;;43.63;19.88;;;-1.70;99.90;;;;;;4917834;29;20481;-78
2024/01/11 05:19:57;;;;;;;47.17;21.60;;;-1.70;99.90;;;;;;4900520;29;20098;-78
2024/01/11 05:22:23;;;;;;;46.63;21.50;;;-1.70;99.90;;;;;;4917712;29;20160;-79
2024/01/11 05:24:49;;;;;;;53.08;22.00;;;-1.70;99.90;;;;;;4900875;29;20060;-74
2024/01/11 05:27:14;;;;;;;51.10;23.42;;;-1.60;99.90;;;;;;4917865;29;20047;-81
2024/01/11 05:29:40;;;;;;;43.85;21.85;;;-1.60;99.90;;;;;;4919634;29;20060;-77
2024/01/11 05:32:06;;;;;;;45.95;20.45;;;-1.50;99.90;;;;;;4902067;29;20374;-80
2024/01/11 05:34:31;;;;;;;43.15;21.25;;;-1.50;99.90;;;;;;4899899;29;20063;-82
2024/01/11 05:36:57;;;;;;;47.15;21.70;;;-1.50;99.90;;;;;;4917798;29;20062;-81
2024/01/11 05:39:23;;;;;;;48.17;23.80;;;-1.40;99.90;;;;;;4884637;29;20060;-81
2024/01/11 05:41:48;;;;;;;54.08;23.77;;;-1.40;99.90;;;;;;4917422;29;20116;-78
2024/01/11 05:44:14;;;;;;;52.08;23.13;;;-1.40;99.90;;;;;;4900245;29;20095;-77
2024/01/11 05:46:40;;;;;;;48.30;23.00;;;-1.40;99.90;;;;;;4900389;29;20060;-80
2024/01/11 05:49:06;;;;;;;46.03;22.30;;;-1.30;99.90;;;;;;4917929;29;20497;-81
2024/01/11 05:51:31;;;;;;;49.92;23.15;;;-1.30;99.90;;;;;;4900583;29;20064;-82
2024/01/11 05:53:57;;;;;;;53.42;22.83;;;-1.30;99.90;;;;;;4917261;29;20059;-79
2024/01/11 05:56:23;;;;;;;42.60;21.27;;;-1.30;99.90;;;;;;4917400;29;20049;-76
2024/01/11 05:58:48;;;;;;;45.78;22.75;;;-1.30;99.90;;;;;;4917152;29;20044;-79
2024/01/11 06:01:15;;;;;;;51.50;24.27;;;-1.20;99.90;;;;;;4917078;29;20051;-79
2024/01/11 06:03:40;;;;;;;46.28;23.02;;;-1.20;99.90;;;;;;4899996;29;20056;-81
2024/01/11 06:06:06;;;;;;;46.03;21.95;;;-1.20;99.90;;;;;;4918258;29;20055;-79
2024/01/11 06:08:32;;;;;;;48.00;22.38;;;-1.20;99.90;;;;;;4901245;29;20052;-81
2024/01/11 06:10:58;;;;;;;50.55;22.75;;;-1.10;99.90;;;;;;4899544;29;20078;-78
2024/01/11 06:13:24;;;;;;;47.72;22.77;;;-1.10;99.90;;;;;;4899477;29;20052;-79
2024/01/11 06:15:50;;;;;;;46.20;21.17;;;-1.10;99.90;;;;;;4916804;29;20047;-79
2024/01/11 06:18:16;;;;;;;52.40;24.15;;;-1.10;99.90;;;;;;4900384;29;20055;-81
2024/01/11 06:20:42;;;;;;;43.35;21.27;;;-1.10;99.90;;;;;;4917088;29;20091;-77
2024/01/11 06:23:07;;;;;;;47.17;21.25;;;-1.00;99.90;;;;;;4899714;29;20147;-75
2024/01/11 06:25:33;;;;;;;50.58;22.50;;;-1.00;99.90;;;;;;4902404;29;20044;-80
2024/01/11 06:27:59;;;;;;;46.55;23.05;;;-1.00;99.90;;;;;;4899855;29;20060;-71
2024/01/11 06:30:25;;;;;;;46.13;24.00;;;-0.90;99.90;;;;;;4916768;29;20059;-72
2024/01/11 06:32:51;;;;;;;52.22;24.90;;;-0.90;99.90;;;;;;4916419;29;20127;-71
2024/01/11 06:35:17;;;;;;;53.38;24.80;;;-0.90;99.90;;;;;;4899578;29;20119;-73
2024/01/11 06:37:43;;;;;;;46.53;23.45;;;-0.80;99.90;;;;;;4899523;29;20052;-71
2024/01/11 06:40:09;;;;;;;43.22;22.10;;;-0.90;99.90;;;;;;4916424;29;20146;-79
2024/01/11 06:42:35;;;;;;;49.05;22.55;;;-0.80;99.90;;;;;;4916707;29;20060;-79
2024/01/11 06:45:01;;;;;;;51.95;24.02;;;-0.80;99.90;;;;;;4917343;29;20104;-72
2024/01/11 06:47:26;;;;;;;54.55;23.42;;;-0.90;99.90;;;;;;4916002;29;20476;-73
2024/01/11 06:49:53;;;;;;;49.10;23.08;;;-0.90;99.90;;;;;;4916113;29;20075;-70
2024/01/11 06:52:19;;;;;;;48.03;23.23;;;-0.80;99.90;;;;;;4916108;29;20050;-71
2024/01/11 06:54:45;;;;;;;45.72;21.13;;;-0.80;99.90;;;;;;4916033;29;20056;-74
2024/01/11 06:57:11;;;;;;;51.20;23.85;;;-0.80;99.90;;;;;;4915920;29;20044;-71
2024/01/11 06:59:37;;;;;;;49.47;23.60;;;-0.80;99.90;;;;;;4915867;29;20051;-78
2024/01/11 07:02:03;;;;;;;49.00;22.55;;;-0.80;99.90;;;;;;4916261;29;20154;-81
2024/01/11 07:04:29;;;;;;;46.45;22.55;;;-0.70;99.90;;;;;;4898842;29;20055;-72
2024/01/11 07:06:55;;;;;;;53.97;24.48;;;-0.80;99.90;;;;;;4914372;29;20056;-78
2024/01/11 07:09:20;;;;;;;46.05;22.20;;;-0.70;99.90;;;;;;4915326;29;20083;-74
2024/01/11 07:11:46;;;;;;;54.10;24.42;;;-0.70;99.90;;;;;;4898148;29;20056;-75
2024/01/11 07:14:12;;;;;;;44.00;21.42;;;-0.70;99.90;;;;;;4915901;29;20417;-74
2024/01/11 07:16:37;;;;;;;48.72;22.63;;;-0.70;99.90;;;;;;4915544;29;20067;-80
2024/01/11 07:19:03;;;;;;;47.95;23.58;;;-0.60;99.90;;;;;;4915701;29;20059;-74
2024/01/11 07:21:29;;;;;;;47.70;22.02;;;-0.60;99.90;;;;;;4901285;29;20056;-74
2024/01/11 07:23:59;;;;;;;46.42;22.85;;;-0.60;99.90;;;;;;4915552;29;20123;-71
2024/01/11 07:26:25;;;;;;;52.10;24.52;;;-0.60;99.90;;;;;;4915248;29;20091;-74
2024/01/11 07:28:51;;;;;;;47.30;23.35;;;-0.60;99.90;;;;;;4915557;29;20054;-74
2024/01/11 07:31:17;;;;;;;52.53;22.25;;;-0.60;99.90;;;;;;4915289;29;20058;-78
2024/01/11 07:33:43;;;;;;;47.42;22.33;;;-0.60;99.90;;;;;;4897922;29;20385;-77
2024/01/11 07:36:09;;;;;;;46.33;22.48;;;-0.60;99.90;;;;;;4915627;29;20381;-80
2024/01/11 07:38:35;;;;;;;49.42;23.98;;;-0.60;99.90;;;;;;4917035;29;20127;-76
2024/01/11 07:41:01;;;;;;;51.75;23.80;;;-0.60;99.90;;;;;;4915276;29;20055;-77
2024/01/11 07:43:28;;;;;;;44.50;20.23;;;-0.60;99.90;;;;;;4914764;29;20823;-73
2024/01/11 07:45:56;;;;;;;47.47;22.58;;;-0.60;99.90;;;;;;4915109;29;20111;-78
2024/01/11 07:48:22;;;;;;;45.08;20.77;;;-0.50;99.90;;;;;;4882549;29;20052;-73
2024/01/11 07:50:48;;;;;;;43.40;20.25;;;-0.60;99.90;;;;;;4915083;29;20092;-75
2024/01/11 07:53:15;;;;;;;47.42;21.60;;;-0.60;99.90;;;;;;4915044;29;20095;-81
2024/01/11 07:55:41;;;;;;;45.88;19.67;;;-0.50;99.90;;;;;;4898100;29;20060;-77
2024/01/11 07:58:07;;;;;;;45.50;20.88;;;-0.50;99.90;;;;;;4915194;29;20512;-82
2024/01/11 08:00:33;;;;;;;44.63;21.33;;;-0.50;99.90;;;;;;4898141;29;20055;-76
2024/01/11 08:02:59;;;;;;;43.20;21.40;;;-0.50;99.90;;;;;;4898236;29;20052;-80
2024/01/11 08:05:25;;;;;;;42.53;20.05;;;-0.50;99.90;;;;;;4915091;29;20048;-71
2024/01/11 08:07:51;;;;;;;42.83;20.60;;;-0.50;99.90;;;;;;4915142;29;20044;-74
2024/01/11 08:10:17;;;;;;;41.75;20.58;;;-0.40;99.90;;;;;;4898054;29;20587;-78
2024/01/11 08:12:43;;;;;;;43.70;21.48;;;-0.40;99.90;;;;;;4915054;29;20052;-75
2024/01/11 08:15:15;;;;;;;44.03;22.35;;;-0.40;99.90;;;;;;4914984;29;20559;-75
2024/01/11 08:17:45;;;;;;;42.83;20.65;;;-0.40;99.90;;;;;;4914956;29;20044;-75
2024/01/11 08:20:11;;;;;;;36.63;18.88;;;-0.30;99.90;;;;;;4897846;29;20052;-78
2024/01/11 08:22:47;;;;;;;41.00;21.33;;;-0.30;99.90;;;;;;4914663;29;20605;-76
2024/01/11 08:25:15;;;;;;;43.53;19.10;;;-0.20;99.90;;;;;;4898132;29;20131;-73
2024/01/11 08:27:41;;;;;;;38.22;20.00;;;-0.20;99.90;;;;;;4882514;29;20095;-75
2024/01/11 08:30:08;;;;;;;43.75;21.05;;;-0.20;99.90;;;;;;4914644;29;20089;-79
2024/01/11 08:32:38;;;;;;;43.97;19.20;;;-0.10;99.90;;;;;;4897809;29;20487;-81
2024/01/11 08:35:09;;;;;;;44.30;20.55;;;-0.10;99.90;;;;;;4897743;29;20143;-78
2024/01/11 08:37:35;;;;;;;42.10;20.63;;;-0.10;99.90;;;;;;4914597;29;20524;-73
2024/01/11 08:40:04;;;;;;;38.58;19.40;;;0.00;99.90;;;;;;4914462;29;20091;-72
2024/01/11 08:42:31;;;;;;;44.30;20.55;;;0.00;99.90;;;;;;4897761;29;20048;-76
2024/01/11 08:44:56;;;;;;;46.88;20.95;;;0.00;99.90;;;;;;4914679;29;20055;-81
2024/01/11 08:47:22;;;;;;;38.65;18.65;;;0.10;99.90;;;;;;4897506;29;20067;-80
2024/01/11 08:49:48;;;;;;;41.22;19.17;;;0.20;99.90;;;;;;4916008;29;20052;-77
2024/01/11 08:52:14;;;;;;;43.63;19.02;;;0.20;99.90;;;;;;4916458;29;20405;-75
2024/01/11 08:54:40;;;;;;;42.63;20.58;;;0.30;99.90;;;;;;4914447;29;20445;-72
2024/01/11 08:57:06;;;;;;;43.42;20.27;;;0.30;99.90;;;;;;4914295;29;20724;-76
2024/01/11 08:59:32;;;;;;;43.97;19.70;;;0.40;99.90;;;;;;4914186;29;20056;-76
2024/01/11 09:01:58;;;;;;;39.85;19.38;;;0.40;99.90;;;;;;4914632;29;20091;-79
2024/01/11 09:04:24;;;;;;;37.53;17.75;;;0.40;99.90;;;;;;4914509;29;20465;-81
2024/01/11 09:06:50;;;;;;;30.75;11.57;;;0.50;99.90;;;;;;4897146;29;20468;-77
2024/01/11 09:09:16;;;;;;;29.27;13.65;;;0.60;99.90;;;;;;4916880;29;20048;-82
2024/01/11 09:11:42;;;;;;;23.50;10.35;;;0.70;99.90;;;;;;4918057;29;20113;-82
2024/01/11 09:14:11;;;;;;;10.93;2.58;;;0.80;99.90;;;;;;4917432;29;20479;-79
2024/01/11 09:16:36;;;;;;;5.38;0.88;;;1.10;99.90;;;;;;4901462;29;20106;-77
2024/01/11 09:19:02;;;;;;;6.70;1.23;;;1.50;99.90;;;;;;4917761;29;20056;-76
2024/01/11 09:21:28;;;;;;;6.68;1.02;;;1.80;99.90;;;;;;4917502;29;20062;-76
2024/01/11 09:23:55;;;;;;;7.95;0.85;;;1.90;99.90;;;;;;4917475;29;20080;-79
2024/01/11 09:26:22;;;;;;;7.65;0.77;;;2.10;99.90;;;;;;4917540;29;20086;-82
2024/01/11 09:28:48;;;;;;;5.50;0.95;;;2.30;99.90;;;;;;4900457;29;20524;-77
2024/01/11 09:31:14;;;;;;;5.28;1.02;;;2.40;99.90;;;;;;4884715;29;20060;-75
2024/01/11 09:33:40;;;;;;;9.30;2.03;;;2.40;99.90;;;;;;4900360;29;20071;-78
2024/01/11 09:36:08;;;;;;;6.40;1.23;;;2.50;99.90;;;;;;4917555;29;20378;-82
2024/01/11 09:38:33;;;;;;;10.07;1.20;;;2.60;99.90;;;;;;4917416;29;20069;-79
2024/01/11 09:41:08;;;;;;;10.95;1.27;;;2.60;99.90;;;;;;4900239;29;20059;-77
2024/01/11 09:43:35;;;;;;;6.55;1.20;;;2.70;99.90;;;;;;4917306;29;20124;-83
2024/01/11 09:46:05;;;;;;;9.68;1.45;;;2.80;99.90;;;;;;4885447;29;20560;-83
2024/01/11 09:48:35;;;;;;;10.38;1.50;;;2.80;99.90;;;;;;4917283;29;20138;-81
2024/01/11 09:51:13;;;;;;;6.35;0.85;;;2.90;99.90;;;;;;4916944;29;20575;-74
2024/01/11 09:53:40;;;;;;;3.88;0.93;;;3.00;99.90;;;;;;4917094;29;20067;-78
2024/01/11 09:56:10;;;;;;;9.60;1.17;;;3.10;99.90;;;;;;4916971;29;20527;-81
2024/01/11 09:58:36;;;;;;;4.70;0.85;;;3.10;99.90;;;;;;4886197;29;20052;-79
2024/01/11 10:01:02;;;;;;;6.78;1.30;;;3.20;99.90;;;;;;4917018;29;20075;-78
2024/01/11 10:03:29;;;;;;;8.77;1.67;;;3.20;99.90;;;;;;4918083;29;20060;-79
2024/01/11 10:05:58;;;;;;;3.55;1.00;;;3.20;99.90;;;;;;4916791;29;20585;-76
2024/01/11 10:08:25;;;;;;;4.53;0.80;;;3.30;99.90;;;;;;4899950;29;20131;-74
2024/01/11 10:10:50;;;;;;;9.15;1.98;;;3.30;99.90;;;;;;4899087;29;20060;-73
2024/01/11 10:13:16;;;;;;;10.63;2.80;;;3.40;99.90;;;;;;4916561;29;20127;-80
2024/01/11 10:15:46;;;;;;;9.45;2.13;;;3.50;99.90;;;;;;4900620;29;20079;-74
2024/01/11 10:18:12;;;;;;;6.53;1.13;;;3.50;99.90;;;;;;4916676;29;20051;-84
2024/01/11 10:20:38;;;;;;;8.95;2.33;;;3.70;99.90;;;;;;4899509;29;20064;-72
2024/01/11 10:23:04;;;;;;;12.82;2.25;;;3.70;99.90;;;;;;4916412;29;20063;-83
2024/01/11 10:25:29;;;;;;;7.10;1.58;;;3.70;99.90;;;;;;4899210;29;20060;-84
2024/01/11 10:27:55;;;;;;;6.10;1.65;;;3.80;99.90;;;;;;4916128;29;20059;-75
2024/01/11 10:30:23;;;;;;;9.65;1.98;;;3.80;99.90;;;;;;4899145;29;20551;-83
2024/01/11 10:32:49;;;;;;;9.80;2.13;;;3.80;99.90;;;;;;4916721;29;20914;-83
2024/01/11 10:35:17;;;;;;;9.68;1.52;;;3.80;99.90;;;;;;4902208;29;20060;-84
2024/01/11 10:37:44;;;;;;;11.35;2.30;;;3.80;99.90;;;;;;4899234;29;20409;-81
2024/01/11 10:40:13;;;;;;;9.02;1.65;;;3.80;99.90;;;;;;4916146;29;20063;-73
2024/01/11 10:42:43;;;;;;;22.65;3.35;;;3.80;99.90;;;;;;4883531;29;20200;-75
2024/01/11 10:45:15;;;;;;;16.58;2.75;;;3.90;99.90;;;;;;4916218;29;20056;-73
2024/01/11 10:47:51;;;;;;;11.65;2.08;;;4.00;99.90;;;;;;4883664;29;20052;-83
2024/01/11 10:50:19;;;;;;;19.20;2.72;;;4.00;99.90;;;;;;4917563;29;20068;-81
2024/01/11 10:53:04;;;;;;;13.20;3.35;;;4.10;99.90;;;;;;4916200;29;20095;-75
2024/01/11 10:55:32;;;;;;;21.83;3.45;;;4.10;99.90;;;;;;4898743;29;20058;-77
2024/01/11 10:58:00;;;;;;;17.50;5.15;;;4.10;99.90;;;;;;4916156;29;20437;-73
2024/01/11 11:00:30;;;;;;;19.52;3.00;;;4.20;99.90;;;;;;4915441;29;20488;-75
2024/01/11 11:03:00;;;;;;;19.30;2.95;;;4.20;99.90;;;;;;4915741;29;20448;-75
2024/01/11 11:05:27;;;;;;;15.23;2.70;;;4.20;99.90;;;;;;4915723;29;20040;-73
2024/01/11 11:07:55;;;;;;;16.48;3.20;;;4.20;99.90;;;;;;4915757;29;20056;-74
2024/01/11 11:10:22;;;;;;;35.92;4.70;;;4.30;99.90;;;;;;4915478;29;20040;-80
2024/01/11 11:12:49;;;;;;;32.13;3.63;;;4.30;99.90;;;;;;4915604;29;20056;-73
2024/01/11 11:15:15;;;;;;;21.10;3.78;;;4.30;99.90;;;;;;4898782;29;20381;-73
2024/01/11 11:17:43;;;;;;;25.20;4.32;;;4.30;99.90;;;;;;4915625;29;20107;-79
2024/01/11 11:20:13;;;;;;;22.40;4.03;;;4.30;99.90;;;;;;4898418;29;20464;-78
2024/01/11 11:22:42;;;;;;;23.48;4.00;;;4.20;99.90;;;;;;4915768;29;20143;-77
2024/01/11 11:25:32;;;;;;;27.23;4.57;;;4.20;99.90;;;;;;4898277;29;20139;-83
2024/01/11 11:28:00;;;;;;;31.27;5.97;;;4.20;99.90;;;;;;4897378;29;20064;-77
2024/01/11 11:30:27;;;;;;;31.40;4.82;;;4.20;99.90;;;;;;4897908;29;20571;-79
2024/01/11 11:32:55;;;;;;;30.45;5.13;;;4.20;99.90;;;;;;4882335;29;20056;-72
2024/01/11 11:35:25;;;;;;;42.45;7.32;;;4.20;99.90;;;;;;4915228;29;20048;-74
2024/01/11 11:37:58;;;;;;;27.35;6.97;;;4.30;99.90;;;;;;4915128;29;20155;-84
2024/01/11 11:40:39;;;;;;;36.15;7.47;;;4.30;99.90;;;;;;4898177;29;20059;-79
2024/01/11 11:43:06;;;;;;;30.13;4.57;;;4.30;99.90;;;;;;4898683;29;20052;-73
2024/01/11 11:45:33;;;;;;;33.83;5.32;;;4.30;99.90;;;;;;4915491;29;20060;-81
2024/01/11 11:47:58;;;;;;;41.20;6.65;;;4.30;99.90;;;;;;4915525;29;20118;-79
2024/01/11 11:50:24;;;;;;;24.90;3.05;;;4.40;99.90;;;;;;4915465;29;20048;-83
2024/01/11 11:52:57;;;;;;;23.50;4.30;;;4.30;99.90;;;;;;4915175;29;20055;-80
2024/01/11 11:55:25;;;;;;;26.10;4.32;;;4.40;99.90;;;;;;4897854;29;20519;-78
2024/01/11 11:57:52;;;;;;;26.25;5.03;;;4.40;99.90;;;;;;4898036;29;20059;-81
2024/01/11 12:00:18;;;;;;;31.13;6.45;;;4.40;99.90;;;;;;4914907;29;20580;-79
2024/01/11 12:02:44;;;;;;;32.03;5.25;;;4.40;99.90;;;;;;4915232;29;20696;-76
2024/01/11 12:05:09;;;;;;;40.13;8.05;;;4.40;99.90;;;;;;4898181;29;20055;-79
2024/01/11 12:07:35;;;;;;;32.17;6.25;;;4.40;99.90;;;;;;4915056;29;20052;-76
2024/01/11 12:10:01;;;;;;;23.45;5.80;;;4.40;99.90;;;;;;4914933;29;20452;-77
2024/01/11 12:12:28;;;;;;;29.45;6.10;;;4.40;99.90;;;;;;4897679;29;20504;-77
2024/01/11 12:14:54;;;;;;;21.75;4.22;;;4.50;99.90;;;;;;4915462;29;20059;-80
2024/01/11 12:17:20;;;;;;;24.02;5.47;;;4.50;99.90;;;;;;4898809;29;20060;-72
2024/01/11 12:19:45;;;;;;;31.05;5.40;;;4.50;99.90;;;;;;4897656;29;20048;-80
2024/01/11 12:22:11;;;;;;;40.40;4.72;;;4.60;99.90;;;;;;4915437;29;20392;-79
2024/01/11 12:24:37;;;;;;;49.92;6.65;;;4.60;99.90;;;;;;4914921;29;20067;-75
2024/01/11 12:27:03;;;;;;;32.55;4.78;;;4.60;99.90;;;;;;4914863;29;20052;-79
2024/01/11 12:29:32;;;;;;;28.95;6.28;;;4.60;99.90;;;;;;4914899;29;20040;-75